WXM80 ListenWXM80 Stop

You find our weather info also at:

UK Metoffice

WeatherCloud

Weather Underground

Northeastern Weather Network

AWEKAS

Citizen Weather Observer Program (CWOP)

HAMweather, WeatherForYou, PWS Weather


Weather Underground History page Text

Daily Summary for April 5, 2016 Units:  English    Metric   Both
« Previous Day
Next Day »
Daily Weekly Monthly Yearly Custom
  High: Low: Average:
Temperature: 41.6 °F 27.1 °F 34.4 °F
Dew Point: 26.1 °F 12.3 °F 19.1 °F
Humidity: 85 % 34 % 56 %
Wind Speed: 17.5 mph 1.2 mph 7.5 mph
Wind Gust: 22.0 mph - -
Wind:- - SE
Pressure: 30.36 in 30.04 in -
Precipitation: 0.10 in    
Historical Graphs
 
 
Tabular Data for April 5, 2016
Time Temperature Dew Point Pressure Wind Wind Speed Wind Gust Humidity Rainfall Rate (Hourly)
00:01 30.1 °F 26.1 °F 30.04 in NE 9.3 mph 15.0 mph 85 % 0.01 in
00:06 30.1 °F 25.8 °F 30.04 in North 10.0 mph 16.1 mph 84 % 0.00 in
00:11 30.1 °F 25.8 °F 30.04 in NNW 12.3 mph 15.0 mph 84 % 0.00 in
00:17 30.1 °F 25.6 °F 30.04 in NNE 9.1 mph 11.5 mph 83 % 0.00 in
00:22 30.1 °F 25.8 °F 30.04 in NE 10.2 mph 13.8 mph 84 % 0.00 in
00:27 30.1 °F 25.8 °F 30.05 in NE 6.4 mph 12.7 mph 84 % 0.00 in
00:32 30.1 °F 25.8 °F 30.05 in North 11.1 mph 13.8 mph 84 % 0.00 in
00:37 30.2 °F 25.9 °F 30.05 in NNE 9.1 mph 11.5 mph 84 % 0.00 in
00:42 30.2 °F 25.7 °F 30.05 in NE 12.3 mph 19.6 mph 83 % 0.00 in
00:47 30.1 °F 25.3 °F 30.05 in North 13.9 mph 17.3 mph 82 % 0.01 in
00:52 30.1 °F 25.6 °F 30.05 in NNW 7.2 mph 11.5 mph 83 % 0.01 in
01:02 30.2 °F 25.4 °F 30.05 in NE 9.3 mph 17.3 mph 82 % 0.01 in
01:08 30.2 °F 25.1 °F 30.05 in NNE 10.8 mph 19.6 mph 81 % 0.01 in
01:13 30.2 °F 25.1 °F 30.05 in North 9.3 mph 18.4 mph 81 % 0.01 in
01:18 30.2 °F 25.1 °F 30.05 in NNE 10.7 mph 17.0 mph 81 % 0.01 in
01:23 30.2 °F 25.1 °F 30.05 in NNE 10.9 mph 13.8 mph 81 % 0.01 in
01:28 30.3 °F 25.2 °F 30.06 in NNE 7.9 mph 11.5 mph 81 % 0.01 in
01:33 30.3 °F 25.2 °F 30.05 in North 9.3 mph 13.8 mph 81 % 0.01 in
01:38 30.3 °F 25.2 °F 30.06 in NNE 9.7 mph 15.0 mph 81 % 0.01 in
01:43 30.3 °F 25.2 °F 30.06 in NNW 7.5 mph 11.5 mph 81 % 0.00 in
01:48 30.4 °F 25.6 °F 30.06 in NE 8.6 mph 12.0 mph 82 % 0.00 in
01:53 30.3 °F 24.9 °F 30.06 in NE 6.2 mph 16.1 mph 80 % 0.00 in
01:59 30.3 °F 25.2 °F 30.06 in NE 5.4 mph 11.5 mph 81 % 0.00 in
02:04 30.3 °F 25.2 °F 30.06 in NE 11.5 mph 15.0 mph 81 % 0.00 in
02:09 30.3 °F 25.5 °F 30.06 in NNE 10.6 mph 17.3 mph 82 % 0.00 in
02:19 30.3 °F 25.5 °F 30.06 in NNE 7.8 mph 13.0 mph 82 % 0.00 in
02:24 30.2 °F 25.1 °F 30.06 in NNE 7.0 mph 12.0 mph 81 % 0.00 in
02:29 30.2 °F 25.4 °F 30.07 in NNE 6.8 mph 17.3 mph 82 % 0.01 in
02:34 30.3 °F 25.8 °F 30.07 in NNE 6.2 mph 9.2 mph 83 % 0.01 in
02:39 30.2 °F 25.7 °F 30.07 in North 6.2 mph 10.4 mph 83 % 0.01 in
02:45 30.2 °F 25.7 °F 30.07 in North 6.7 mph 12.7 mph 83 % 0.01 in
02:50 30.1 °F 25.6 °F 30.06 in NNE 6.8 mph 12.7 mph 83 % 0.01 in
02:55 30.0 °F 25.5 °F 30.06 in NNE 7.1 mph 11.5 mph 83 % 0.01 in
03:00 30.0 °F 25.5 °F 30.06 in NNE 5.6 mph 13.8 mph 83 % 0.01 in
03:05 29.9 °F 25.4 °F 30.07 in NNE 8.6 mph 15.0 mph 83 % 0.01 in
03:10 29.9 °F 25.4 °F 30.07 in NE 7.5 mph 12.0 mph 83 % 0.01 in
03:15 29.9 °F 25.4 °F 30.07 in North 7.5 mph 11.0 mph 83 % 0.01 in
03:20 29.8 °F 25.3 °F 30.07 in NNE 9.7 mph 19.6 mph 83 % 0.01 in
03:25 29.8 °F 25.0 °F 30.07 in NNE 10.3 mph 16.1 mph 82 % 0.01 in
03:30 29.7 °F 25.2 °F 30.08 in NNE 8.7 mph 15.0 mph 83 % 0.00 in
03:36 29.7 °F 25.2 °F 30.08 in NNE 7.4 mph 9.2 mph 83 % 0.00 in
03:41 29.7 °F 24.9 °F 30.08 in NE 9.5 mph 15.0 mph 82 % 0.00 in
03:46 29.6 °F 24.8 °F 30.08 in NNE 9.7 mph 15.0 mph 82 % 0.00 in
03:56 29.6 °F 25.1 °F 30.08 in NE 7.9 mph 10.4 mph 83 % 0.00 in
04:01 29.6 °F 25.1 °F 30.08 in NNE 10.0 mph 16.1 mph 83 % 0.00 in
04:06 29.5 °F 25.0 °F 30.08 in North 9.4 mph 12.0 mph 83 % 0.01 in
04:11 29.5 °F 25.0 °F 30.08 in NNW 7.6 mph 15.0 mph 83 % 0.01 in
04:16 29.4 °F 24.6 °F 30.08 in NNE 9.6 mph 13.8 mph 82 % 0.01 in
04:21 29.4 °F 24.6 °F 30.08 in NNE 6.0 mph 6.0 mph 82 % 0.01 in
04:27 29.4 °F 24.9 °F 30.08 in NNE 11.4 mph 15.0 mph 83 % 0.01 in
04:32 29.3 °F 24.8 °F 30.08 in North 10.9 mph 16.1 mph 83 % 0.01 in
04:37 29.2 °F 24.4 °F 30.08 in NE 9.5 mph 12.7 mph 82 % 0.01 in
04:42 29.2 °F 24.7 °F 30.09 in NNW 6.1 mph 10.4 mph 83 % 0.01 in
04:47 29.2 °F 24.7 °F 30.09 in NNE 6.9 mph 11.5 mph 83 % 0.01 in
04:52 29.1 °F 24.6 °F 30.09 in North 7.8 mph 10.0 mph 83 % 0.01 in
04:57 29.0 °F 24.5 °F 30.09 in North 11.0 mph 13.8 mph 83 % 0.01 in
05:02 29.0 °F 24.8 °F 30.10 in NNE 4.5 mph 8.1 mph 84 % 0.01 in
05:07 29.0 °F 24.5 °F 30.10 in North 4.9 mph 10.4 mph 83 % 0.00 in
05:12 28.9 °F 24.4 °F 30.10 in North 7.4 mph 12.7 mph 83 % 0.00 in
05:18 28.9 °F 24.4 °F 30.11 in NE 6.1 mph 10.4 mph 83 % 0.00 in
05:23 28.9 °F 24.1 °F 30.11 in North 9.2 mph 16.1 mph 82 % 0.00 in
05:28 28.9 °F 23.8 °F 30.12 in NNE 8.8 mph 13.0 mph 81 % 0.00 in
05:33 28.8 °F 23.4 °F 30.12 in NNE 7.7 mph 11.5 mph 80 % 0.00 in
05:38 28.8 °F 23.4 °F 30.13 in NNE 7.2 mph 11.5 mph 80 % 0.00 in
05:43 28.8 °F 23.1 °F 30.13 in NNE 8.3 mph 11.5 mph 79 % 0.00 in
05:53 28.7 °F 23.0 °F 30.14 in NNE 7.9 mph 13.8 mph 79 % 0.01 in
05:58 28.6 °F 22.6 °F 30.15 in NNE 10.7 mph 15.0 mph 78 % 0.01 in
06:03 28.6 °F 22.0 °F 30.16 in NE 13.0 mph 18.4 mph 76 % 0.01 in
06:09 28.5 °F 21.9 °F 30.16 in North 12.6 mph 16.1 mph 76 % 0.01 in
06:19 28.3 °F 19.8 °F 30.17 in NE 8.5 mph 19.6 mph 70 % 0.01 in
06:24 28.3 °F 20.1 °F 30.19 in North 6.6 mph 11.5 mph 71 % 0.01 in
06:29 28.2 °F 19.7 °F 30.20 in NNE 10.4 mph 15.0 mph 70 % 0.01 in
06:34 28.1 °F 19.6 °F 30.20 in NNE 5.6 mph 10.0 mph 70 % 0.01 in
06:39 28.0 °F 19.5 °F 30.20 in North 5.9 mph 11.0 mph 70 % 0.01 in
06:49 27.7 °F 19.5 °F 30.21 in North 7.8 mph 11.5 mph 71 % 0.00 in
06:54 27.6 °F 19.8 °F 30.21 in North 7.0 mph 10.4 mph 72 % 0.00 in
07:00 27.4 °F 19.2 °F 30.21 in North 11.0 mph 15.0 mph 71 % 0.00 in
07:05 27.3 °F 18.8 °F 30.21 in North 9.2 mph 13.8 mph 70 % 0.00 in
07:10 27.2 °F 18.7 °F 30.21 in NNE 9.5 mph 13.8 mph 70 % 0.00 in
07:15 27.1 °F 18.3 °F 30.21 in North 11.8 mph 15.0 mph 69 % 0.00 in
07:20 27.1 °F 18.3 °F 30.20 in NE 9.5 mph 13.8 mph 69 % 0.01 in
07:25 27.1 °F 18.3 °F 30.20 in North 12.7 mph 16.1 mph 69 % 0.01 in
07:30 27.1 °F 18.3 °F 30.21 in North 9.8 mph 15.0 mph 69 % 0.01 in
07:35 27.2 °F 17.7 °F 30.21 in NNE 14.8 mph 18.4 mph 67 % 0.01 in
07:40 27.2 °F 17.7 °F 30.21 in North 11.6 mph 19.6 mph 67 % 0.01 in
07:45 27.4 °F 17.9 °F 30.21 in North 12.2 mph 16.1 mph 67 % 0.01 in
07:51 27.5 °F 18.0 °F 30.21 in North 12.6 mph 16.0 mph 67 % 0.01 in
07:56 27.8 °F 18.6 °F 30.21 in NNW 12.8 mph 19.6 mph 68 % 0.01 in
08:01 27.9 °F 17.6 °F 30.21 in NNE 11.9 mph 20.7 mph 65 % 0.01 in
08:06 28.1 °F 17.5 °F 30.22 in NNW 12.8 mph 19.6 mph 64 % 0.01 in
08:11 28.3 °F 18.0 °F 30.22 in NNE 14.1 mph 20.7 mph 65 % 0.01 in
08:16 28.4 °F 18.1 °F 30.23 in NNE 15.3 mph 21.9 mph 65 % 0.01 in
08:21 28.5 °F 17.5 °F 30.22 in NNW 7.5 mph 19.6 mph 63 % 0.00 in
08:26 28.9 °F 18.6 °F 30.23 in NNE 11.2 mph 16.1 mph 65 % 0.00 in
08:31 29.0 °F 18.3 °F 30.23 in NNE 13.6 mph 18.4 mph 64 % 0.00 in
08:36 29.2 °F 18.2 °F 30.24 in NNE 14.5 mph 19.6 mph 63 % 0.00 in
08:42 29.5 °F 18.4 °F 30.23 in NE 17.5 mph 22.0 mph 63 % 0.00 in
08:47 29.8 °F 19.1 °F 30.24 in North 10.3 mph 21.9 mph 64 % 0.00 in
08:52 29.7 °F 17.9 °F 30.24 in North 15.7 mph 21.9 mph 61 % 0.00 in
08:57 29.4 °F 18.0 °F 30.24 in North 12.2 mph 17.0 mph 62 % 0.00 in
09:02 29.1 °F 18.4 °F 30.24 in NW 13.2 mph 19.6 mph 64 % 0.00 in
09:12 29.2 °F 17.8 °F 30.25 in NNW 13.6 mph 18.4 mph 62 % 0.00 in
09:22 29.8 °F 19.1 °F 30.25 in NNE 9.7 mph 19.6 mph 64 % 0.00 in
09:27 30.2 °F 18.4 °F 30.25 in NNE 10.8 mph 19.6 mph 61 % 0.00 in
09:33 30.6 °F 19.1 °F 30.25 in NE 8.6 mph 16.1 mph 62 % 0.00 in
09:38 31.0 °F 18.7 °F 30.26 in NNE 11.8 mph 17.3 mph 60 % 0.00 in
09:48 31.7 °F 19.0 °F 30.26 in NE 9.9 mph 14.0 mph 59 % 0.00 in
09:53 31.9 °F 19.2 °F 30.26 in North 8.1 mph 9.2 mph 59 % 0.00 in
09:58 32.2 °F 18.7 °F 30.27 in NE 12.2 mph 16.1 mph 57 % 0.00 in
10:03 32.3 °F 17.9 °F 30.27 in NNE 8.4 mph 17.3 mph 55 % 0.00 in
10:08 32.6 °F 18.6 °F 30.27 in NE 14.2 mph 20.7 mph 56 % 0.00 in
10:13 32.7 °F 18.7 °F 30.27 in NNE 11.3 mph 16.1 mph 56 % 0.00 in
10:18 33.0 °F 18.6 °F 30.27 in North 11.6 mph 16.1 mph 55 % 0.00 in
10:24 33.4 °F 19.8 °F 30.28 in North 10.0 mph 21.0 mph 57 % 0.00 in
10:29 33.6 °F 19.6 °F 30.28 in North 5.8 mph 13.8 mph 56 % 0.00 in
10:39 34.1 °F 20.0 °F 30.28 in NNE 10.6 mph 16.1 mph 56 % 0.00 in
10:44 34.4 °F 19.5 °F 30.28 in North 9.1 mph 16.1 mph 54 % 0.00 in
10:49 34.5 °F 19.5 °F 30.28 in North 8.9 mph 15.0 mph 54 % 0.00 in
10:54 34.8 °F 19.4 °F 30.29 in NNE 13.2 mph 20.7 mph 53 % 0.00 in
10:59 35.3 °F 20.3 °F 30.29 in NNE 9.0 mph 12.7 mph 54 % 0.00 in
11:04 35.5 °F 19.6 °F 30.29 in NW 7.3 mph 16.1 mph 52 % 0.00 in
11:09 35.7 °F 20.7 °F 30.28 in NNE 10.0 mph 18.4 mph 54 % 0.00 in
11:25 36.2 °F 20.7 °F 30.29 in NNE 6.8 mph 12.7 mph 53 % 0.00 in
11:30 36.6 °F 20.6 °F 30.29 in North 7.9 mph 13.8 mph 52 % 0.00 in
11:35 37.0 °F 20.5 °F 30.29 in NNE 7.4 mph 11.5 mph 51 % 0.00 in
11:40 37.5 °F 21.5 °F 30.29 in NNE 6.0 mph 16.1 mph 52 % 0.00 in
11:45 37.9 °F 20.9 °F 30.29 in North 8.0 mph 11.5 mph 50 % 0.00 in
11:50 38.2 °F 21.6 °F 30.30 in NNW 6.1 mph 11.5 mph 51 % 0.00 in
11:55 38.1 °F 20.1 °F 30.30 in NNW 8.4 mph 13.8 mph 48 % 0.01 in
12:00 38.5 °F 21.9 °F 30.29 in North 6.9 mph 11.5 mph 51 % 0.01 in
12:11 38.9 °F 21.8 °F 30.29 in North 6.1 mph 9.2 mph 50 % 0.01 in
12:16 39.4 °F 22.8 °F 30.29 in NNW 7.0 mph 11.5 mph 51 % 0.01 in
12:21 39.6 °F 22.5 °F 30.29 in NNW 4.6 mph 8.1 mph 50 % 0.01 in
12:26 40.1 °F 22.9 °F 30.29 in North 6.0 mph 9.2 mph 50 % 0.01 in
12:31 39.6 °F 21.5 °F 30.29 in NNE 6.3 mph 10.4 mph 48 % 0.01 in
12:36 39.7 °F 22.1 °F 30.29 in NE 3.2 mph 6.9 mph 49 % 0.01 in
12:41 39.6 °F 21.0 °F 30.29 in NE 6.5 mph 9.2 mph 47 % 0.01 in
12:46 39.9 °F 20.8 °F 30.29 in NNE 7.7 mph 11.5 mph 46 % 0.01 in
12:51 39.7 °F 21.1 °F 30.28 in NNE 7.0 mph 10.4 mph 47 % 0.00 in
12:57 39.9 °F 20.3 °F 30.29 in NNW 6.2 mph 11.5 mph 45 % 0.00 in
13:02 40.0 °F 20.9 °F 30.29 in North 6.5 mph 11.5 mph 46 % 0.00 in
13:07 40.2 °F 20.5 °F 30.28 in NNW 7.6 mph 11.5 mph 45 % 0.00 in
13:12 40.4 °F 20.7 °F 30.28 in NNW 6.9 mph 11.5 mph 45 % 0.00 in
13:17 40.6 °F 20.9 °F 30.28 in NNE 5.7 mph 11.0 mph 45 % 0.00 in
13:22 41.3 °F 22.6 °F 30.28 in WNW 6.2 mph 8.1 mph 47 % 0.00 in
13:27 40.9 °F 20.6 °F 30.28 in NNW 4.7 mph 8.1 mph 44 % 0.00 in
13:32 40.9 °F 19.5 °F 30.28 in NW 7.6 mph 10.4 mph 42 % 0.00 in
13:37 40.8 °F 20.0 °F 30.28 in North 6.2 mph 6.9 mph 43 % 0.00 in
13:48 40.3 °F 18.4 °F 30.27 in North 8.9 mph 11.5 mph 41 % 0.00 in
13:58 40.5 °F 17.5 °F 30.27 in North 6.7 mph 12.0 mph 39 % 0.01 in
14:03 40.7 °F 18.2 °F 30.27 in NNE 8.1 mph 11.5 mph 40 % 0.01 in
14:13 40.5 °F 16.2 °F 30.27 in North 8.6 mph 12.0 mph 37 % 0.01 in
14:18 40.4 °F 16.8 °F 30.27 in NNW 8.9 mph 13.8 mph 38 % 0.01 in
14:23 40.5 °F 17.5 °F 30.27 in NNE 7.1 mph 10.4 mph 39 % 0.01 in
14:33 41.3 °F 18.2 °F 30.27 in NNE 5.8 mph 11.5 mph 39 % 0.01 in
14:39 41.6 °F 19.0 °F 30.27 in North 8.5 mph 12.0 mph 40 % 0.01 in
14:44 41.5 °F 18.4 °F 30.27 in NNW 8.3 mph 13.8 mph 39 % 0.01 in
14:49 41.4 °F 18.9 °F 30.27 in North 6.6 mph 12.7 mph 40 % 0.01 in
14:59 41.2 °F 17.5 °F 30.27 in NNW 5.5 mph 10.4 mph 38 % 0.00 in
15:04 41.2 °F 15.6 °F 30.27 in North 5.4 mph 11.5 mph 35 % 0.01 in
15:09 41.5 °F 17.1 °F 30.26 in North 9.6 mph 13.8 mph 37 % 0.01 in
15:14 41.4 °F 17.7 °F 30.26 in NNW 6.4 mph 11.5 mph 38 % 0.01 in
15:19 40.9 °F 17.2 °F 30.27 in North 6.4 mph 11.5 mph 38 % 0.01 in
15:24 40.9 °F 16.6 °F 30.27 in NNW 5.2 mph 12.7 mph 37 % 0.01 in
15:30 40.6 °F 15.7 °F 30.26 in North 7.1 mph 11.5 mph 36 % 0.01 in
15:35 40.7 °F 16.4 °F 30.27 in NNW 5.4 mph 9.2 mph 37 % 0.01 in
15:40 40.8 °F 15.9 °F 30.27 in North 8.8 mph 13.8 mph 36 % 0.01 in
15:45 40.9 °F 19.0 °F 30.27 in NE 6.1 mph 10.4 mph 41 % 0.01 in
15:50 41.2 °F 16.9 °F 30.27 in NE 7.3 mph 11.0 mph 37 % 0.01 in
15:55 41.2 °F 16.9 °F 30.27 in NNE 6.3 mph 10.4 mph 37 % 0.01 in
16:00 41.1 °F 16.8 °F 30.27 in North 5.7 mph 10.4 mph 37 % 0.01 in
16:05 41.3 °F 16.9 °F 30.27 in North 6.8 mph 12.7 mph 37 % 0.00 in
16:10 41.3 °F 15.0 °F 30.27 in North 6.1 mph 12.7 mph 34 % 0.00 in
16:11 41.3 °F 15.0 °F 30.27 in North 6.1 mph 12.7 mph 34 % 0.00 in
16:16 41.5 °F 17.1 °F 30.27 in NNW 6.1 mph 10.4 mph 37 % 0.00 in
16:21 41.4 °F 16.4 °F 30.26 in NNE 6.1 mph 10.4 mph 36 % 0.00 in
16:26 41.4 °F 16.4 °F 30.26 in NNE 7.7 mph 11.5 mph 36 % 0.00 in
16:31 41.3 °F 16.3 °F 30.26 in NE 8.7 mph 13.8 mph 36 % 0.01 in
16:36 41.1 °F 16.8 °F 30.26 in North 3.9 mph 8.1 mph 37 % 0.01 in
16:41 41.1 °F 16.1 °F 30.26 in NNW 5.4 mph 10.4 mph 36 % 0.01 in
16:46 41.1 °F 15.5 °F 30.26 in North 7.4 mph 11.5 mph 35 % 0.01 in
16:51 40.9 °F 16.0 °F 30.26 in North 6.3 mph 11.5 mph 36 % 0.01 in
16:56 41.0 °F 16.0 °F 30.26 in NNE 4.3 mph 11.5 mph 36 % 0.01 in
17:02 41.0 °F 15.4 °F 30.26 in NE 5.6 mph 9.2 mph 35 % 0.01 in
17:07 40.8 °F 14.6 °F 30.26 in North 5.3 mph 12.7 mph 34 % 0.01 in
17:12 40.8 °F 15.9 °F 30.26 in North 7.7 mph 12.7 mph 36 % 0.01 in
17:17 40.7 °F 15.8 °F 30.26 in NNW 7.1 mph 11.5 mph 36 % 0.01 in
17:22 40.7 °F 16.4 °F 30.26 in NNE 7.5 mph 11.5 mph 37 % 0.01 in
17:32 40.5 °F 15.0 °F 30.26 in North 4.9 mph 8.1 mph 35 % 0.00 in
17:37 40.6 °F 15.7 °F 30.26 in NNW 5.1 mph 10.4 mph 36 % 0.00 in
17:42 40.6 °F 15.7 °F 30.26 in North 6.7 mph 10.4 mph 36 % 0.00 in
17:47 40.3 °F 14.1 °F 30.26 in North 5.3 mph 9.2 mph 34 % 0.00 in
17:53 40.0 °F 14.5 °F 30.27 in NNE 6.2 mph 10.4 mph 35 % 0.00 in
17:58 39.7 °F 14.9 °F 30.27 in North 4.7 mph 8.1 mph 36 % 0.00 in
18:03 39.4 °F 14.6 °F 30.27 in NNE 8.1 mph 12.0 mph 36 % 0.00 in
18:08 39.1 °F 15.6 °F 30.27 in NNW 3.4 mph 8.1 mph 38 % 0.00 in
18:13 39.0 °F 16.7 °F 30.27 in North 3.7 mph 4.6 mph 40 % 0.00 in
18:18 39.0 °F 14.9 °F 30.27 in NNE 6.1 mph 9.2 mph 37 % 0.00 in
18:23 38.8 °F 14.1 °F 30.28 in NNW 3.2 mph 5.0 mph 36 % 0.00 in
18:28 38.6 °F 14.5 °F 30.28 in North 4.7 mph 11.5 mph 37 % 0.00 in
18:33 38.4 °F 15.6 °F 30.27 in North 4.1 mph 5.8 mph 39 % 0.00 in
18:38 38.3 °F 15.5 °F 30.27 in NNW 3.8 mph 5.8 mph 39 % 0.00 in
18:44 38.2 °F 14.2 °F 30.28 in NW 3.3 mph 10.4 mph 37 % 0.00 in
18:49 38.1 °F 14.1 °F 30.27 in NNW 4.2 mph 8.1 mph 37 % 0.00 in
18:59 37.9 °F 13.9 °F 30.28 in North 3.5 mph 6.0 mph 37 % 0.00 in
19:04 37.8 °F 13.8 °F 30.28 in NNE 2.4 mph 6.9 mph 37 % 0.00 in
19:09 37.6 °F 16.0 °F 30.28 in NNE 3.5 mph 8.0 mph 41 % 0.00 in
19:14 37.5 °F 14.8 °F 30.28 in North 6.9 mph 10.4 mph 39 % 0.00 in
19:19 37.4 °F 14.1 °F 30.28 in NNW 3.1 mph 8.1 mph 38 % 0.00 in
19:24 37.3 °F 15.2 °F 30.28 in NNW 4.1 mph 8.0 mph 40 % 0.00 in
19:29 37.2 °F 14.5 °F 30.29 in NNE 6.1 mph 8.1 mph 39 % 0.00 in
19:35 37.1 °F 15.0 °F 30.29 in North 5.0 mph 9.2 mph 40 % 0.00 in
19:40 37.0 °F 14.3 °F 30.29 in NNE 5.1 mph 11.5 mph 39 % 0.00 in
19:45 37.0 °F 15.5 °F 30.30 in North 3.5 mph 8.1 mph 41 % 0.00 in
19:50 36.9 °F 14.2 °F 30.29 in NNE 4.0 mph 9.2 mph 39 % 0.00 in
19:55 36.9 °F 14.2 °F 30.29 in NE 3.3 mph 3.5 mph 39 % 0.00 in
20:00 36.8 °F 15.3 °F 30.29 in NNE 3.4 mph 6.9 mph 41 % 0.00 in
20:05 36.7 °F 15.2 °F 30.29 in North 4.6 mph 6.9 mph 41 % 0.00 in
20:10 36.6 °F 14.5 °F 30.30 in NNE 5.6 mph 9.2 mph 40 % 0.00 in
20:15 36.5 °F 14.4 °F 30.30 in North 2.8 mph 3.5 mph 40 % 0.00 in
20:20 36.5 °F 13.9 °F 30.31 in North 5.9 mph 6.0 mph 39 % 0.00 in
20:26 36.4 °F 13.8 °F 30.31 in North 5.1 mph 9.2 mph 39 % 0.00 in
20:31 36.4 °F 13.8 °F 30.31 in NNE 6.0 mph 8.1 mph 39 % 0.00 in
20:36 36.4 °F 14.3 °F 30.32 in North 6.1 mph 10.4 mph 40 % 0.01 in
20:41 36.5 °F 14.4 °F 30.32 in North 4.7 mph 8.1 mph 40 % 0.01 in
20:46 36.5 °F 14.4 °F 30.33 in North 6.0 mph 8.1 mph 40 % 0.01 in
20:56 36.4 °F 13.8 °F 30.32 in NNE 7.1 mph 11.5 mph 39 % 0.01 in
21:01 36.4 °F 13.8 °F 30.33 in NNE 5.6 mph 9.2 mph 39 % 0.01 in
21:11 36.3 °F 14.8 °F 30.34 in NNE 6.0 mph 8.1 mph 41 % 0.01 in
21:17 36.2 °F 14.2 °F 30.34 in North 5.0 mph 6.9 mph 40 % 0.01 in
21:22 36.2 °F 13.6 °F 30.34 in NNW 4.9 mph 10.4 mph 39 % 0.01 in
21:27 36.1 °F 14.6 °F 30.34 in North 5.0 mph 8.1 mph 41 % 0.01 in
21:32 36.0 °F 14.5 °F 30.34 in North 4.4 mph 6.9 mph 41 % 0.01 in
21:37 35.9 °F 15.0 °F 30.34 in North 5.5 mph 9.2 mph 42 % 0.00 in
21:42 35.9 °F 15.0 °F 30.34 in North 4.7 mph 5.8 mph 42 % 0.00 in
21:47 35.8 °F 14.4 °F 30.34 in NNE 4.4 mph 6.9 mph 41 % 0.00 in
21:57 35.5 °F 14.1 °F 30.34 in NNE 4.2 mph 6.9 mph 41 % 0.00 in
22:03 35.5 °F 14.1 °F 30.34 in North 6.2 mph 8.1 mph 41 % 0.00 in
22:08 35.4 °F 13.4 °F 30.34 in NNE 6.7 mph 9.2 mph 40 % 0.00 in
22:13 35.3 °F 13.9 °F 30.34 in NNE 3.4 mph 6.9 mph 41 % 0.00 in
22:18 35.3 °F 13.9 °F 30.34 in North 3.7 mph 5.0 mph 41 % 0.00 in
22:23 35.2 °F 14.4 °F 30.34 in NNE 4.7 mph 8.1 mph 42 % 0.00 in
22:28 35.1 °F 13.2 °F 30.34 in NNW 4.1 mph 8.1 mph 40 % 0.00 in
22:33 35.0 °F 13.1 °F 30.34 in North 3.6 mph 5.8 mph 40 % 0.00 in
22:38 35.0 °F 12.5 °F 30.34 in NNE 4.9 mph 8.1 mph 39 % 0.00 in
22:43 34.9 °F 13.5 °F 30.34 in NNE 5.9 mph 7.0 mph 41 % 0.00 in
22:48 34.9 °F 13.0 °F 30.34 in NNE 3.6 mph 8.1 mph 40 % 0.00 in
22:54 34.8 °F 12.3 °F 30.34 in NNE 4.1 mph 5.8 mph 39 % 0.00 in
22:59 34.8 °F 12.9 °F 30.35 in North 3.6 mph 6.9 mph 40 % 0.00 in
23:04 34.7 °F 13.9 °F 30.35 in NNE 3.1 mph 5.0 mph 42 % 0.00 in
23:09 34.6 °F 13.8 °F 30.35 in NNE 2.0 mph 4.6 mph 42 % 0.00 in
23:14 34.5 °F 13.2 °F 30.35 in NNE 4.1 mph 5.8 mph 41 % 0.00 in
23:24 34.3 °F 13.0 °F 30.35 in North 4.1 mph 6.9 mph 41 % 0.00 in
23:29 34.3 °F 13.0 °F 30.35 in NNE 3.1 mph 4.6 mph 41 % 0.00 in
23:34 34.3 °F 13.0 °F 30.36 in NNE 3.3 mph 3.5 mph 41 % 0.00 in
23:39 34.3 °F 13.6 °F 30.36 in North 2.8 mph 5.8 mph 42 % 0.00 in
23:45 34.2 °F 13.5 °F 30.36 in NNW 3.7 mph 5.8 mph 42 % 0.00 in
23:50 34.2 °F 12.9 °F 30.35 in NNW 2.2 mph 5.8 mph 41 % 0.00 in
23:55 34.3 °F 14.1 °F 30.36 in North 1.2 mph 3.5 mph 43 % 0.00 in
Crab Meadow Weather
Compliments of Weather Underground - 2.75 mb

Script developed by  Jim McMurry - jmcmurry@mwt.net Adapted for the template by  Wim van der Kuil - Leuven-Template.eu

Hurricanes: Hurricanes are classified into five categories, based on their wind speeds and potential to cause damage. * Category One -- Winds 74-95 miles per hour * Category Two -- Winds 96-110 miles per hour * Category Three -- Winds 111-130 miles per hour * Category Four -- Winds 131-155 miles per hour * Category Five -- Winds greater than 155 miles per hour.